sensor_id;sensor_type;location;lat;lon;timestamp;P1;durP1;ratioP1;P2;durP2;ratioP2
3095;SDS011;1558;42.700;23.360;2022-07-23T00:01:12;19.58;;;15.30;;
3095;SDS011;1558;42.700;23.360;2022-07-23T00:03:47;18.05;;;13.98;;
3095;SDS011;1558;42.700;23.360;2022-07-23T00:06:19;18.95;;;14.43;;
3095;SDS011;1558;42.700;23.360;2022-07-23T00:08:47;23.42;;;15.30;;
3095;SDS011;1558;42.700;23.360;2022-07-23T00:11:15;22.90;;;16.10;;
3095;SDS011;1558;42.700;23.360;2022-07-23T00:13:44;17.17;;;15.30;;
3095;SDS011;1558;42.700;23.360;2022-07-23T00:16:12;14.93;;;13.18;;
3095;SDS011;1558;42.700;23.360;2022-07-23T00:18:40;14.97;;;11.20;;
3095;SDS011;1558;42.700;23.360;2022-07-23T00:21:08;16.63;;;11.67;;
3095;SDS011;1558;42.700;23.360;2022-07-23T00:23:37;11.63;;;9.87;;
3095;SDS011;1558;42.700;23.360;2022-07-23T00:26:05;12.87;;;9.50;;
3095;SDS011;1558;42.700;23.360;2022-07-23T00:28:34;11.23;;;9.93;;
3095;SDS011;1558;42.700;23.360;2022-07-23T00:31:02;11.23;;;8.47;;
3095;SDS011;1558;42.700;23.360;2022-07-23T00:33:30;9.87;;;8.00;;
3095;SDS011;1558;42.700;23.360;2022-07-23T00:35:58;9.87;;;8.73;;
3095;SDS011;1558;42.700;23.360;2022-07-23T00:38:26;8.97;;;8.17;;
3095;SDS011;1558;42.700;23.360;2022-07-23T00:40:55;10.53;;;9.00;;
3095;SDS011;1558;42.700;23.360;2022-07-23T00:43:23;9.67;;;8.70;;
3095;SDS011;1558;42.700;23.360;2022-07-23T00:45:51;9.17;;;8.30;;
3095;SDS011;1558;42.700;23.360;2022-07-23T00:48:19;9.93;;;7.90;;
3095;SDS011;1558;42.700;23.360;2022-07-23T00:50:47;7.50;;;6.90;;
3095;SDS011;1558;42.700;23.360;2022-07-23T00:53:16;8.07;;;7.27;;
3095;SDS011;1558;42.700;23.360;2022-07-23T00:55:44;9.13;;;7.57;;
3095;SDS011;1558;42.700;23.360;2022-07-23T00:58:13;9.80;;;7.63;;
3095;SDS011;1558;42.700;23.360;2022-07-23T01:00:42;10.93;;;7.47;;
3095;SDS011;1558;42.700;23.360;2022-07-23T01:03:10;9.07;;;8.00;;
3095;SDS011;1558;42.700;23.360;2022-07-23T01:05:38;13.10;;;8.43;;
3095;SDS011;1558;42.700;23.360;2022-07-23T01:08:06;8.73;;;7.93;;
3095;SDS011;1558;42.700;23.360;2022-07-23T01:10:34;10.87;;;7.80;;
3095;SDS011;1558;42.700;23.360;2022-07-23T01:13:03;10.57;;;8.47;;
3095;SDS011;1558;42.700;23.360;2022-07-23T01:15:34;8.70;;;7.23;;
3095;SDS011;1558;42.700;23.360;2022-07-23T01:18:04;10.43;;;8.20;;
3095;SDS011;1558;42.700;23.360;2022-07-23T01:20:35;8.73;;;7.90;;
3095;SDS011;1558;42.700;23.360;2022-07-23T01:23:04;9.07;;;7.93;;
3095;SDS011;1558;42.700;23.360;2022-07-23T01:25:32;9.93;;;8.93;;
3095;SDS011;1558;42.700;23.360;2022-07-23T01:28:00;7.97;;;7.17;;
3095;SDS011;1558;42.700;23.360;2022-07-23T01:30:28;8.07;;;7.47;;
3095;SDS011;1558;42.700;23.360;2022-07-23T01:32:56;9.90;;;7.97;;
3095;SDS011;1558;42.700;23.360;2022-07-23T01:35:24;8.37;;;7.57;;
3095;SDS011;1558;42.700;23.360;2022-07-23T01:37:52;9.37;;;7.90;;
3095;SDS011;1558;42.700;23.360;2022-07-23T01:40:21;9.57;;;7.97;;
3095;SDS011;1558;42.700;23.360;2022-07-23T01:42:49;9.80;;;7.83;;
3095;SDS011;1558;42.700;23.360;2022-07-23T01:45:18;9.00;;;7.93;;
3095;SDS011;1558;42.700;23.360;2022-07-23T01:47:46;9.10;;;8.20;;
3095;SDS011;1558;42.700;23.360;2022-07-23T01:50:14;10.50;;;8.13;;
3095;SDS011;1558;42.700;23.360;2022-07-23T01:52:42;9.57;;;8.23;;
3095;SDS011;1558;42.700;23.360;2022-07-23T01:55:10;10.73;;;8.30;;
3095;SDS011;1558;42.700;23.360;2022-07-23T01:57:45;12.47;;;7.60;;
3095;SDS011;1558;42.700;23.360;2022-07-23T02:00:13;8.83;;;7.60;;
3095;SDS011;1558;42.700;23.360;2022-07-23T02:02:42;9.43;;;7.90;;
3095;SDS011;1558;42.700;23.360;2022-07-23T02:05:10;8.90;;;7.80;;
3095;SDS011;1558;42.700;23.360;2022-07-23T02:07:37;9.20;;;7.47;;
3095;SDS011;1558;42.700;23.360;2022-07-23T02:10:06;9.73;;;7.97;;
3095;SDS011;1558;42.700;23.360;2022-07-23T02:12:34;9.27;;;8.37;;
3095;SDS011;1558;42.700;23.360;2022-07-23T02:15:04;9.20;;;7.63;;
3095;SDS011;1558;42.700;23.360;2022-07-23T02:17:35;10.77;;;9.67;;
3095;SDS011;1558;42.700;23.360;2022-07-23T02:20:04;10.23;;;8.37;;
3095;SDS011;1558;42.700;23.360;2022-07-23T02:22:33;11.27;;;9.20;;
3095;SDS011;1558;42.700;23.360;2022-07-23T02:25:02;15.23;;;13.63;;
3095;SDS011;1558;42.700;23.360;2022-07-23T02:27:30;19.07;;;14.43;;
3095;SDS011;1558;42.700;23.360;2022-07-23T02:29:58;20.37;;;15.33;;
3095;SDS011;1558;42.700;23.360;2022-07-23T02:32:27;24.60;;;15.43;;
3095;SDS011;1558;42.700;23.360;2022-07-23T02:34:55;18.73;;;15.03;;
3095;SDS011;1558;42.700;23.360;2022-07-23T02:37:23;17.50;;;14.77;;
3095;SDS011;1558;42.700;23.360;2022-07-23T02:39:51;22.73;;;15.40;;
3095;SDS011;1558;42.700;23.360;2022-07-23T02:42:19;17.93;;;14.57;;
3095;SDS011;1558;42.700;23.360;2022-07-23T02:44:47;16.57;;;14.10;;
3095;SDS011;1558;42.700;23.360;2022-07-23T02:47:15;16.57;;;14.93;;
3095;SDS011;1558;42.700;23.360;2022-07-23T02:49:44;19.43;;;14.50;;
3095;SDS011;1558;42.700;23.360;2022-07-23T02:52:12;18.37;;;14.30;;
3095;SDS011;1558;42.700;23.360;2022-07-23T02:54:40;15.60;;;13.50;;
3095;SDS011;1558;42.700;23.360;2022-07-23T02:57:08;19.70;;;13.37;;
3095;SDS011;1558;42.700;23.360;2022-07-23T02:59:36;14.40;;;12.10;;
3095;SDS011;1558;42.700;23.360;2022-07-23T03:02:04;14.33;;;12.80;;
3095;SDS011;1558;42.700;23.360;2022-07-23T03:04:32;14.40;;;11.77;;
3095;SDS011;1558;42.700;23.360;2022-07-23T03:07:02;15.57;;;12.80;;
3095;SDS011;1558;42.700;23.360;2022-07-23T03:09:30;16.77;;;12.33;;
3095;SDS011;1558;42.700;23.360;2022-07-23T03:11:58;16.87;;;13.00;;
3095;SDS011;1558;42.700;23.360;2022-07-23T03:14:26;14.10;;;12.20;;
3095;SDS011;1558;42.700;23.360;2022-07-23T03:16:54;14.30;;;11.77;;
3095;SDS011;1558;42.700;23.360;2022-07-23T03:19:23;14.23;;;12.03;;
3095;SDS011;1558;42.700;23.360;2022-07-23T03:21:50;12.80;;;11.40;;
3095;SDS011;1558;42.700;23.360;2022-07-23T03:24:20;13.57;;;11.83;;
3095;SDS011;1558;42.700;23.360;2022-07-23T03:26:49;15.20;;;12.63;;
3095;SDS011;1558;42.700;23.360;2022-07-23T03:29:17;13.93;;;12.53;;
3095;SDS011;1558;42.700;23.360;2022-07-23T03:31:45;13.73;;;12.33;;
3095;SDS011;1558;42.700;23.360;2022-07-23T03:34:13;18.70;;;12.53;;
3095;SDS011;1558;42.700;23.360;2022-07-23T03:36:41;14.03;;;11.83;;
3095;SDS011;1558;42.700;23.360;2022-07-23T03:39:09;15.47;;;11.87;;
3095;SDS011;1558;42.700;23.360;2022-07-23T03:41:41;13.80;;;12.07;;
3095;SDS011;1558;42.700;23.360;2022-07-23T03:44:08;13.63;;;11.73;;
3095;SDS011;1558;42.700;23.360;2022-07-23T03:46:36;14.23;;;11.97;;
3095;SDS011;1558;42.700;23.360;2022-07-23T03:49:04;12.37;;;11.17;;
3095;SDS011;1558;42.700;23.360;2022-07-23T03:51:33;14.97;;;11.33;;
3095;SDS011;1558;42.700;23.360;2022-07-23T03:54:01;13.90;;;11.40;;
3095;SDS011;1558;42.700;23.360;2022-07-23T03:56:29;13.33;;;11.47;;
3095;SDS011;1558;42.700;23.360;2022-07-23T03:58:58;12.97;;;11.37;;
3095;SDS011;1558;42.700;23.360;2022-07-23T04:01:27;12.37;;;11.03;;
3095;SDS011;1558;42.700;23.360;2022-07-23T04:03:55;12.90;;;10.93;;
3095;SDS011;1558;42.700;23.360;2022-07-23T04:06:23;12.30;;;10.93;;
3095;SDS011;1558;42.700;23.360;2022-07-23T04:08:51;11.97;;;10.77;;
3095;SDS011;1558;42.700;23.360;2022-07-23T04:11:19;12.47;;;10.50;;
3095;SDS011;1558;42.700;23.360;2022-07-23T04:13:47;12.13;;;10.93;;
3095;SDS011;1558;42.700;23.360;2022-07-23T04:16:16;15.60;;;11.77;;
3095;SDS011;1558;42.700;23.360;2022-07-23T04:18:44;14.60;;;10.80;;
3095;SDS011;1558;42.700;23.360;2022-07-23T04:21:12;13.10;;;9.60;;
3095;SDS011;1558;42.700;23.360;2022-07-23T04:23:40;12.93;;;9.83;;
3095;SDS011;1558;42.700;23.360;2022-07-23T04:26:09;17.87;;;11.63;;
3095;SDS011;1558;42.700;23.360;2022-07-23T04:28:43;18.43;;;12.13;;
3095;SDS011;1558;42.700;23.360;2022-07-23T04:31:11;18.97;;;13.10;;
3095;SDS011;1558;42.700;23.360;2022-07-23T04:33:40;17.90;;;13.67;;
3095;SDS011;1558;42.700;23.360;2022-07-23T04:36:08;19.23;;;14.10;;
3095;SDS011;1558;42.700;23.360;2022-07-23T04:38:36;20.50;;;14.33;;
3095;SDS011;1558;42.700;23.360;2022-07-23T04:41:04;17.13;;;15.13;;
3095;SDS011;1558;42.700;23.360;2022-07-23T04:43:32;20.63;;;15.23;;
3095;SDS011;1558;42.700;23.360;2022-07-23T04:46:00;16.73;;;15.10;;
3095;SDS011;1558;42.700;23.360;2022-07-23T04:48:28;16.33;;;14.63;;
3095;SDS011;1558;42.700;23.360;2022-07-23T04:50:57;19.57;;;14.30;;
3095;SDS011;1558;42.700;23.360;2022-07-23T04:53:25;20.60;;;15.47;;
3095;SDS011;1558;42.700;23.360;2022-07-23T04:55:53;24.73;;;16.27;;
3095;SDS011;1558;42.700;23.360;2022-07-23T04:58:21;18.57;;;14.57;;
3095;SDS011;1558;42.700;23.360;2022-07-23T05:00:49;19.80;;;14.63;;
3095;SDS011;1558;42.700;23.360;2022-07-23T05:03:17;19.83;;;15.60;;
3095;SDS011;1558;42.700;23.360;2022-07-23T05:05:45;19.98;;;16.08;;
3095;SDS011;1558;42.700;23.360;2022-07-23T05:08:14;18.90;;;15.02;;
3095;SDS011;1558;42.700;23.360;2022-07-23T05:10:42;19.23;;;15.23;;
3095;SDS011;1558;42.700;23.360;2022-07-23T05:13:11;21.58;;;16.30;;
3095;SDS011;1558;42.700;23.360;2022-07-23T05:15:39;17.63;;;15.75;;
3095;SDS011;1558;42.700;23.360;2022-07-23T05:18:07;19.88;;;15.60;;
3095;SDS011;1558;42.700;23.360;2022-07-23T05:20:35;22.23;;;15.25;;
3095;SDS011;1558;42.700;23.360;2022-07-23T05:23:03;18.15;;;16.23;;
3095;SDS011;1558;42.700;23.360;2022-07-23T05:25:33;23.30;;;15.68;;
3095;SDS011;1558;42.700;23.360;2022-07-23T05:28:01;21.60;;;16.58;;
3095;SDS011;1558;42.700;23.360;2022-07-23T05:30:29;18.48;;;15.23;;
3095;SDS011;1558;42.700;23.360;2022-07-23T05:32:57;17.55;;;15.60;;
3095;SDS011;1558;42.700;23.360;2022-07-23T05:35:25;17.42;;;15.10;;
3095;SDS011;1558;42.700;23.360;2022-07-23T05:37:53;18.00;;;14.35;;
3095;SDS011;1558;42.700;23.360;2022-07-23T05:40:21;18.77;;;15.65;;
3095;SDS011;1558;42.700;23.360;2022-07-23T05:42:50;19.02;;;15.45;;
3095;SDS011;1558;42.700;23.360;2022-07-23T05:45:18;15.45;;;13.95;;
3095;SDS011;1558;42.700;23.360;2022-07-23T05:47:47;15.18;;;13.57;;
3095;SDS011;1558;42.700;23.360;2022-07-23T05:50:17;18.75;;;14.00;;
3095;SDS011;1558;42.700;23.360;2022-07-23T05:52:46;16.25;;;12.88;;
3095;SDS011;1558;42.700;23.360;2022-07-23T05:55:14;18.33;;;12.57;;
3095;SDS011;1558;42.700;23.360;2022-07-23T05:57:42;15.43;;;13.02;;
3095;SDS011;1558;42.700;23.360;2022-07-23T06:00:11;15.18;;;11.88;;
3095;SDS011;1558;42.700;23.360;2022-07-23T06:02:40;17.55;;;14.00;;
3095;SDS011;1558;42.700;23.360;2022-07-23T06:05:08;15.20;;;12.07;;
3095;SDS011;1558;42.700;23.360;2022-07-23T06:07:36;12.68;;;11.45;;
3095;SDS011;1558;42.700;23.360;2022-07-23T06:10:05;13.02;;;11.60;;
3095;SDS011;1558;42.700;23.360;2022-07-23T06:12:34;12.48;;;10.45;;
3095;SDS011;1558;42.700;23.360;2022-07-23T06:15:02;15.27;;;12.45;;
3095;SDS011;1558;42.700;23.360;2022-07-23T06:17:38;11.93;;;10.68;;
3095;SDS011;1558;42.700;23.360;2022-07-23T06:20:06;11.85;;;10.68;;
3095;SDS011;1558;42.700;23.360;2022-07-23T06:22:36;17.70;;;12.80;;
3095;SDS011;1558;42.700;23.360;2022-07-23T06:25:04;12.85;;;10.48;;
3095;SDS011;1558;42.700;23.360;2022-07-23T06:27:44;11.25;;;10.15;;
3095;SDS011;1558;42.700;23.360;2022-07-23T06:30:13;11.63;;;10.40;;
3095;SDS011;1558;42.700;23.360;2022-07-23T06:32:45;12.80;;;11.52;;
3095;SDS011;1558;42.700;23.360;2022-07-23T06:35:13;11.80;;;10.60;;
3095;SDS011;1558;42.700;23.360;2022-07-23T06:37:41;14.65;;;11.15;;
3095;SDS011;1558;42.700;23.360;2022-07-23T06:40:10;16.83;;;10.48;;
3095;SDS011;1558;42.700;23.360;2022-07-23T06:42:39;13.30;;;10.05;;
3095;SDS011;1558;42.700;23.360;2022-07-23T06:45:07;11.82;;;10.55;;
3095;SDS011;1558;42.700;23.360;2022-07-23T06:47:35;11.55;;;10.35;;
3095;SDS011;1558;42.700;23.360;2022-07-23T06:50:05;11.20;;;9.98;;
3095;SDS011;1558;42.700;23.360;2022-07-23T06:52:34;10.75;;;9.75;;
3095;SDS011;1558;42.700;23.360;2022-07-23T06:55:08;11.00;;;9.88;;
3095;SDS011;1558;42.700;23.360;2022-07-23T06:57:36;10.18;;;9.25;;
3095;SDS011;1558;42.700;23.360;2022-07-23T07:00:04;11.02;;;9.95;;
3095;SDS011;1558;42.700;23.360;2022-07-23T07:02:33;11.98;;;9.73;;
3095;SDS011;1558;42.700;23.360;2022-07-23T07:05:01;12.98;;;9.93;;
3095;SDS011;1558;42.700;23.360;2022-07-23T07:07:33;11.52;;;9.60;;
3095;SDS011;1558;42.700;23.360;2022-07-23T07:10:01;12.93;;;9.68;;
3095;SDS011;1558;42.700;23.360;2022-07-23T07:12:29;12.82;;;9.90;;
3095;SDS011;1558;42.700;23.360;2022-07-23T07:14:57;14.82;;;10.00;;
3095;SDS011;1558;42.700;23.360;2022-07-23T07:17:25;11.88;;;9.43;;
3095;SDS011;1558;42.700;23.360;2022-07-23T07:19:53;11.63;;;10.43;;
3095;SDS011;1558;42.700;23.360;2022-07-23T07:22:21;19.25;;;10.98;;
3095;SDS011;1558;42.700;23.360;2022-07-23T07:24:50;13.70;;;9.82;;
3095;SDS011;1558;42.700;23.360;2022-07-23T07:27:19;19.50;;;11.52;;
3095;SDS011;1558;42.700;23.360;2022-07-23T07:29:47;14.32;;;11.57;;
3095;SDS011;1558;42.700;23.360;2022-07-23T07:32:14;17.20;;;11.77;;
3095;SDS011;1558;42.700;23.360;2022-07-23T07:35:03;19.95;;;11.85;;
3095;SDS011;1558;42.700;23.360;2022-07-23T07:37:31;14.32;;;11.35;;
3095;SDS011;1558;42.700;23.360;2022-07-23T07:40:01;13.88;;;10.93;;
3095;SDS011;1558;42.700;23.360;2022-07-23T07:42:30;16.40;;;11.30;;
3095;SDS011;1558;42.700;23.360;2022-07-23T07:44:58;13.07;;;11.30;;
3095;SDS011;1558;42.700;23.360;2022-07-23T07:47:26;16.23;;;11.88;;
3095;SDS011;1558;42.700;23.360;2022-07-23T07:49:54;14.05;;;11.30;;
3095;SDS011;1558;42.700;23.360;2022-07-23T07:52:22;12.40;;;11.07;;
3095;SDS011;1558;42.700;23.360;2022-07-23T07:54:50;13.27;;;10.95;;
3095;SDS011;1558;42.700;23.360;2022-07-23T07:57:19;13.40;;;11.20;;
3095;SDS011;1558;42.700;23.360;2022-07-23T07:59:47;12.82;;;10.65;;
3095;SDS011;1558;42.700;23.360;2022-07-23T08:02:21;14.18;;;10.98;;
3095;SDS011;1558;42.700;23.360;2022-07-23T08:04:49;11.57;;;10.40;;
3095;SDS011;1558;42.700;23.360;2022-07-23T08:07:18;16.50;;;11.40;;
3095;SDS011;1558;42.700;23.360;2022-07-23T08:09:46;16.13;;;11.02;;
3095;SDS011;1558;42.700;23.360;2022-07-23T08:12:14;12.60;;;11.35;;
3095;SDS011;1558;42.700;23.360;2022-07-23T08:14:44;14.75;;;10.77;;
3095;SDS011;1558;42.700;23.360;2022-07-23T08:17:12;14.73;;;11.68;;
3095;SDS011;1558;42.700;23.360;2022-07-23T08:19:40;12.18;;;10.93;;
3095;SDS011;1558;42.700;23.360;2022-07-23T08:22:08;14.27;;;11.45;;
3095;SDS011;1558;42.700;23.360;2022-07-23T08:24:36;12.23;;;11.00;;
3095;SDS011;1558;42.700;23.360;2022-07-23T08:27:04;12.95;;;10.95;;
3095;SDS011;1558;42.700;23.360;2022-07-23T08:29:32;11.85;;;10.55;;
3095;SDS011;1558;42.700;23.360;2022-07-23T08:32:02;12.38;;;9.88;;
3095;SDS011;1558;42.700;23.360;2022-07-23T08:34:50;11.40;;;10.30;;
3095;SDS011;1558;42.700;23.360;2022-07-23T08:37:18;13.75;;;11.00;;
3095;SDS011;1558;42.700;23.360;2022-07-23T08:39:46;12.52;;;11.23;;
3095;SDS011;1558;42.700;23.360;2022-07-23T08:42:14;11.07;;;10.02;;
3095;SDS011;1558;42.700;23.360;2022-07-23T08:44:42;12.10;;;10.35;;
3095;SDS011;1558;42.700;23.360;2022-07-23T08:47:14;11.45;;;10.50;;
3095;SDS011;1558;42.700;23.360;2022-07-23T08:49:43;10.88;;;9.75;;
3095;SDS011;1558;42.700;23.360;2022-07-23T08:52:12;11.73;;;10.10;;
3095;SDS011;1558;42.700;23.360;2022-07-23T08:54:42;15.85;;;11.27;;
3095;SDS011;1558;42.700;23.360;2022-07-23T08:57:10;15.07;;;11.07;;
3095;SDS011;1558;42.700;23.360;2022-07-23T08:59:42;14.68;;;11.25;;
3095;SDS011;1558;42.700;23.360;2022-07-23T09:02:10;16.55;;;13.65;;
3095;SDS011;1558;42.700;23.360;2022-07-23T09:04:41;13.00;;;11.02;;
3095;SDS011;1558;42.700;23.360;2022-07-23T09:07:08;16.67;;;10.73;;
3095;SDS011;1558;42.700;23.360;2022-07-23T09:09:36;12.68;;;10.98;;
3095;SDS011;1558;42.700;23.360;2022-07-23T09:12:05;15.25;;;11.50;;
3095;SDS011;1558;42.700;23.360;2022-07-23T09:14:35;14.63;;;10.07;;
3095;SDS011;1558;42.700;23.360;2022-07-23T09:17:11;11.57;;;10.18;;
3095;SDS011;1558;42.700;23.360;2022-07-23T09:19:41;11.35;;;10.25;;
3095;SDS011;1558;42.700;23.360;2022-07-23T09:22:17;14.07;;;12.68;;
3095;SDS011;1558;42.700;23.360;2022-07-23T09:25:03;14.63;;;13.32;;
3095;SDS011;1558;42.700;23.360;2022-07-23T09:27:54;11.23;;;10.13;;
3095;SDS011;1558;42.700;23.360;2022-07-23T09:30:23;14.00;;;12.60;;
3095;SDS011;1558;42.700;23.360;2022-07-23T09:33:06;10.35;;;9.32;;
3095;SDS011;1558;42.700;23.360;2022-07-23T09:35:44;12.48;;;10.52;;
3095;SDS011;1558;42.700;23.360;2022-07-23T09:38:14;15.90;;;10.68;;
3095;SDS011;1558;42.700;23.360;2022-07-23T09:40:43;14.27;;;11.15;;
3095;SDS011;1558;42.700;23.360;2022-07-23T09:43:12;12.25;;;11.00;;
3095;SDS011;1558;42.700;23.360;2022-07-23T09:45:40;11.65;;;9.70;;
3095;SDS011;1558;42.700;23.360;2022-07-23T09:48:12;11.02;;;9.93;;
3095;SDS011;1558;42.700;23.360;2022-07-23T09:50:41;11.43;;;9.85;;
3095;SDS011;1558;42.700;23.360;2022-07-23T09:53:11;12.02;;;9.90;;
3095;SDS011;1558;42.700;23.360;2022-07-23T09:55:51;11.10;;;9.82;;
3095;SDS011;1558;42.700;23.360;2022-07-23T09:58:26;11.50;;;9.60;;
3095;SDS011;1558;42.700;23.360;2022-07-23T10:00:56;13.75;;;12.07;;
3095;SDS011;1558;42.700;23.360;2022-07-23T10:03:25;10.32;;;9.35;;
3095;SDS011;1558;42.700;23.360;2022-07-23T10:05:53;12.95;;;8.93;;
3095;SDS011;1558;42.700;23.360;2022-07-23T10:08:23;10.15;;;9.20;;
3095;SDS011;1558;42.700;23.360;2022-07-23T10:10:51;9.73;;;8.75;;
3095;SDS011;1558;42.700;23.360;2022-07-23T10:13:21;10.75;;;9.50;;
3095;SDS011;1558;42.700;23.360;2022-07-23T10:16:06;13.43;;;10.52;;
3095;SDS011;1558;42.700;23.360;2022-07-23T10:18:35;10.57;;;9.68;;
3095;SDS011;1558;42.700;23.360;2022-07-23T10:21:10;12.05;;;10.23;;
3095;SDS011;1558;42.700;23.360;2022-07-23T10:23:42;12.13;;;10.38;;
3095;SDS011;1558;42.700;23.360;2022-07-23T10:26:29;15.60;;;11.23;;
3095;SDS011;1558;42.700;23.360;2022-07-23T10:29:10;9.77;;;8.75;;
3095;SDS011;1558;42.700;23.360;2022-07-23T10:31:50;9.88;;;8.90;;
3095;SDS011;1558;42.700;23.360;2022-07-23T10:34:31;9.18;;;8.38;;
3095;SDS011;1558;42.700;23.360;2022-07-23T10:37:12;10.65;;;8.93;;
3095;SDS011;1558;42.700;23.360;2022-07-23T10:39:49;9.60;;;8.77;;
3095;SDS011;1558;42.700;23.360;2022-07-23T10:42:36;9.77;;;8.63;;
3095;SDS011;1558;42.700;23.360;2022-07-23T10:45:21;11.55;;;10.38;;
3095;SDS011;1558;42.700;23.360;2022-07-23T10:47:51;10.10;;;9.20;;
3095;SDS011;1558;42.700;23.360;2022-07-23T10:50:21;13.52;;;9.52;;
3095;SDS011;1558;42.700;23.360;2022-07-23T10:53:13;10.88;;;9.85;;
3095;SDS011;1558;42.700;23.360;2022-07-23T10:55:50;11.30;;;9.10;;
3095;SDS011;1558;42.700;23.360;2022-07-23T10:58:20;10.40;;;9.52;;
3095;SDS011;1558;42.700;23.360;2022-07-23T11:01:31;11.93;;;9.25;;
3095;SDS011;1558;42.700;23.360;2022-07-23T11:04:00;9.27;;;8.32;;
3095;SDS011;1558;42.700;23.360;2022-07-23T11:09:39;10.40;;;9.13;;
3095;SDS011;1558;42.700;23.360;2022-07-23T11:15:05;10.20;;;9.10;;
3095;SDS011;1558;42.700;23.360;2022-07-23T11:17:36;11.48;;;9.52;;
3095;SDS011;1558;42.700;23.360;2022-07-23T11:22:50;10.93;;;8.88;;
3095;SDS011;1558;42.700;23.360;2022-07-23T11:25:31;11.70;;;8.93;;
3095;SDS011;1558;42.700;23.360;2022-07-23T11:28:10;11.00;;;8.50;;
3095;SDS011;1558;42.700;23.360;2022-07-23T11:30:41;9.80;;;8.52;;
3095;SDS011;1558;42.700;23.360;2022-07-23T11:33:17;11.25;;;8.35;;
3095;SDS011;1558;42.700;23.360;2022-07-23T11:35:49;11.27;;;8.95;;
3095;SDS011;1558;42.700;23.360;2022-07-23T11:38:30;10.63;;;7.70;;
3095;SDS011;1558;42.700;23.360;2022-07-23T11:41:00;11.90;;;8.77;;
3095;SDS011;1558;42.700;23.360;2022-07-23T11:43:29;11.48;;;8.25;;
3095;SDS011;1558;42.700;23.360;2022-07-23T11:45:58;10.35;;;8.15;;
3095;SDS011;1558;42.700;23.360;2022-07-23T11:48:28;11.15;;;8.57;;
3095;SDS011;1558;42.700;23.360;2022-07-23T11:51:04;13.50;;;8.30;;
3095;SDS011;1558;42.700;23.360;2022-07-23T11:53:32;12.20;;;8.07;;
3095;SDS011;1558;42.700;23.360;2022-07-23T11:56:05;12.20;;;7.90;;
3095;SDS011;1558;42.700;23.360;2022-07-23T11:58:35;9.00;;;8.07;;
3095;SDS011;1558;42.700;23.360;2022-07-23T12:01:04;10.23;;;8.55;;
3095;SDS011;1558;42.700;23.360;2022-07-23T12:03:48;12.75;;;7.90;;
3095;SDS011;1558;42.700;23.360;2022-07-23T12:06:17;13.50;;;8.55;;
3095;SDS011;1558;42.700;23.360;2022-07-23T12:08:45;12.77;;;8.15;;
3095;SDS011;1558;42.700;23.360;2022-07-23T12:11:13;9.65;;;8.13;;
3095;SDS011;1558;42.700;23.360;2022-07-23T12:13:42;12.13;;;7.68;;
3095;SDS011;1558;42.700;23.360;2022-07-23T12:16:10;10.40;;;7.57;;
3095;SDS011;1558;42.700;23.360;2022-07-23T12:18:38;8.75;;;7.25;;
3095;SDS011;1558;42.700;23.360;2022-07-23T12:21:06;10.77;;;7.65;;
3095;SDS011;1558;42.700;23.360;2022-07-23T12:23:34;8.65;;;7.68;;
3095;SDS011;1558;42.700;23.360;2022-07-23T12:26:04;14.02;;;7.75;;
3095;SDS011;1558;42.700;23.360;2022-07-23T12:28:33;13.05;;;8.10;;
3095;SDS011;1558;42.700;23.360;2022-07-23T12:31:05;12.20;;;7.68;;
3095;SDS011;1558;42.700;23.360;2022-07-23T12:33:34;9.07;;;7.28;;
3095;SDS011;1558;42.700;23.360;2022-07-23T12:36:05;16.75;;;7.43;;
3095;SDS011;1558;42.700;23.360;2022-07-23T12:38:37;13.48;;;7.25;;
3095;SDS011;1558;42.700;23.360;2022-07-23T12:41:06;16.58;;;7.82;;
3095;SDS011;1558;42.700;23.360;2022-07-23T12:43:35;10.27;;;7.63;;
3095;SDS011;1558;42.700;23.360;2022-07-23T12:46:07;8.52;;;7.35;;
3095;SDS011;1558;42.700;23.360;2022-07-23T12:48:37;12.02;;;8.38;;
3095;SDS011;1558;42.700;23.360;2022-07-23T12:51:06;10.43;;;7.70;;
3095;SDS011;1558;42.700;23.360;2022-07-23T12:53:44;10.82;;;7.45;;
3095;SDS011;1558;42.700;23.360;2022-07-23T12:56:15;8.93;;;7.32;;
3095;SDS011;1558;42.700;23.360;2022-07-23T12:58:47;12.80;;;7.65;;
3095;SDS011;1558;42.700;23.360;2022-07-23T13:01:25;15.25;;;12.85;;
3095;SDS011;1558;42.700;23.360;2022-07-23T13:03:57;14.45;;;10.02;;
3095;SDS011;1558;42.700;23.360;2022-07-23T13:06:27;13.15;;;11.88;;
3095;SDS011;1558;42.700;23.360;2022-07-23T13:08:56;15.88;;;12.70;;
3095;SDS011;1558;42.700;23.360;2022-07-23T13:11:27;15.93;;;10.68;;
3095;SDS011;1558;42.700;23.360;2022-07-23T13:13:56;16.05;;;8.50;;
3095;SDS011;1558;42.700;23.360;2022-07-23T13:16:25;16.02;;;8.32;;
3095;SDS011;1558;42.700;23.360;2022-07-23T13:18:54;14.88;;;8.85;;
3095;SDS011;1558;42.700;23.360;2022-07-23T13:21:24;11.75;;;8.07;;
3095;SDS011;1558;42.700;23.360;2022-07-23T13:23:54;15.15;;;8.52;;
3095;SDS011;1558;42.700;23.360;2022-07-23T13:26:22;9.63;;;8.20;;
3095;SDS011;1558;42.700;23.360;2022-07-23T13:28:50;9.43;;;7.85;;
3095;SDS011;1558;42.700;23.360;2022-07-23T13:31:18;14.55;;;7.75;;
3095;SDS011;1558;42.700;23.360;2022-07-23T13:33:51;13.30;;;7.57;;
3095;SDS011;1558;42.700;23.360;2022-07-23T13:36:19;15.40;;;7.88;;
3095;SDS011;1558;42.700;23.360;2022-07-23T13:38:47;13.35;;;7.80;;
3095;SDS011;1558;42.700;23.360;2022-07-23T13:41:16;13.95;;;7.88;;
3095;SDS011;1558;42.700;23.360;2022-07-23T13:43:44;12.45;;;7.50;;
3095;SDS011;1558;42.700;23.360;2022-07-23T13:46:13;12.27;;;7.68;;
3095;SDS011;1558;42.700;23.360;2022-07-23T13:48:41;10.82;;;7.75;;
3095;SDS011;1558;42.700;23.360;2022-07-23T13:51:11;13.15;;;7.22;;
3095;SDS011;1558;42.700;23.360;2022-07-23T13:53:39;14.55;;;7.20;;
3095;SDS011;1558;42.700;23.360;2022-07-23T13:56:07;12.98;;;7.07;;
3095;SDS011;1558;42.700;23.360;2022-07-23T13:58:35;14.80;;;7.78;;
3095;SDS011;1558;42.700;23.360;2022-07-23T14:01:03;11.38;;;6.97;;
3095;SDS011;1558;42.700;23.360;2022-07-23T14:03:31;9.05;;;6.93;;
3095;SDS011;1558;42.700;23.360;2022-07-23T14:06:00;13.27;;;6.70;;
3095;SDS011;1558;42.700;23.360;2022-07-23T14:08:29;13.27;;;6.45;;
3095;SDS011;1558;42.700;23.360;2022-07-23T14:10:57;11.15;;;6.60;;
3095;SDS011;1558;42.700;23.360;2022-07-23T14:13:26;15.35;;;7.88;;
3095;SDS011;1558;42.700;23.360;2022-07-23T14:15:56;10.88;;;6.47;;
3095;SDS011;1558;42.700;23.360;2022-07-23T14:18:24;10.73;;;7.75;;
3095;SDS011;1558;42.700;23.360;2022-07-23T14:20:58;12.05;;;6.60;;
3095;SDS011;1558;42.700;23.360;2022-07-23T14:23:27;12.63;;;7.07;;
3095;SDS011;1558;42.700;23.360;2022-07-23T14:25:57;12.82;;;6.82;;
3095;SDS011;1558;42.700;23.360;2022-07-23T14:28:25;16.02;;;7.18;;
3095;SDS011;1558;42.700;23.360;2022-07-23T14:30:53;13.27;;;8.38;;
3095;SDS011;1558;42.700;23.360;2022-07-23T14:33:21;9.30;;;7.15;;
3095;SDS011;1558;42.700;23.360;2022-07-23T14:35:51;12.93;;;8.30;;
3095;SDS011;1558;42.700;23.360;2022-07-23T14:38:19;13.02;;;8.00;;
3095;SDS011;1558;42.700;23.360;2022-07-23T14:40:47;11.15;;;7.78;;
3095;SDS011;1558;42.700;23.360;2022-07-23T14:43:16;11.15;;;7.15;;
3095;SDS011;1558;42.700;23.360;2022-07-23T14:45:45;10.55;;;6.70;;
3095;SDS011;1558;42.700;23.360;2022-07-23T14:48:14;8.02;;;6.63;;
3095;SDS011;1558;42.700;23.360;2022-07-23T14:50:43;8.32;;;7.10;;
3095;SDS011;1558;42.700;23.360;2022-07-23T14:53:11;14.90;;;8.63;;
3095;SDS011;1558;42.700;23.360;2022-07-23T14:55:39;12.75;;;7.50;;
3095;SDS011;1558;42.700;23.360;2022-07-23T14:58:07;14.07;;;8.18;;
3095;SDS011;1558;42.700;23.360;2022-07-23T15:00:36;10.93;;;7.13;;
3095;SDS011;1558;42.700;23.360;2022-07-23T15:03:04;10.18;;;6.60;;
3095;SDS011;1558;42.700;23.360;2022-07-23T15:05:33;12.68;;;7.45;;
3095;SDS011;1558;42.700;23.360;2022-07-23T15:08:01;10.40;;;6.22;;